createdAt,value
2018-09-28T00:01:30.745Z,10.98
2018-09-28T00:03:58.857Z,10.45
2018-09-28T00:06:27.022Z,8.17
2018-09-28T00:08:55.098Z,8.10
2018-09-28T00:11:23.173Z,6.65
2018-09-28T00:13:51.290Z,7.37
2018-09-28T00:16:19.379Z,6.62
2018-09-28T00:18:47.434Z,5.80
2018-09-28T00:21:15.513Z,5.73
2018-09-28T00:23:43.567Z,6.00
2018-09-28T00:26:11.698Z,6.25
2018-09-28T00:28:39.749Z,5.67
2018-09-28T00:31:07.870Z,6.12
2018-09-28T00:33:35.937Z,6.80
2018-09-28T00:36:03.994Z,6.33
2018-09-28T00:38:32.065Z,5.40
2018-09-28T00:41:00.130Z,6.20
2018-09-28T00:43:28.175Z,5.80
2018-09-28T00:45:56.247Z,6.35
2018-09-28T00:48:24.320Z,5.83
2018-09-28T00:50:52.376Z,5.60
2018-09-28T00:53:20.435Z,6.20
2018-09-28T00:55:48.493Z,5.72
2018-09-28T00:58:16.550Z,6.00
2018-09-28T01:00:44.635Z,5.90
2018-09-28T01:03:12.681Z,5.30
2018-09-28T01:05:40.770Z,5.67
2018-09-28T01:08:08.818Z,5.33
2018-09-28T01:10:36.874Z,5.30
2018-09-28T01:13:04.946Z,4.30
2018-09-28T01:15:33.005Z,3.83
2018-09-28T01:18:01.072Z,3.40
2018-09-28T01:20:29.143Z,3.55
2018-09-28T01:22:57.178Z,2.67
2018-09-28T01:25:25.230Z,2.62
2018-09-28T01:27:53.281Z,2.40
2018-09-28T01:30:21.338Z,2.30
2018-09-28T01:32:49.425Z,2.67
2018-09-28T01:35:17.501Z,2.00
2018-09-28T01:37:45.573Z,1.92
2018-09-28T01:40:13.646Z,2.58
2018-09-28T01:42:41.724Z,2.67
2018-09-28T01:45:09.777Z,2.05
2018-09-28T01:47:37.834Z,2.27
2018-09-28T01:50:05.914Z,2.00
2018-09-28T01:52:33.981Z,2.37
2018-09-28T01:55:02.052Z,2.50
2018-09-28T01:57:30.653Z,2.52
2018-09-28T01:59:58.741Z,2.40
2018-09-28T02:02:27.194Z,2.40
2018-09-28T02:04:55.282Z,2.60
2018-09-28T02:07:23.341Z,2.60
2018-09-28T02:09:51.409Z,2.30
2018-09-28T02:12:19.486Z,2.80
2018-09-28T02:14:47.538Z,2.47
2018-09-28T02:17:15.593Z,3.02
2018-09-28T02:19:43.845Z,2.50
2018-09-28T02:22:11.913Z,2.60
2018-09-28T02:24:39.957Z,2.22
2018-09-28T02:27:08.030Z,3.00
2018-09-28T02:29:36.101Z,2.40
2018-09-28T02:32:04.194Z,2.60
2018-09-28T02:34:32.245Z,2.75
2018-09-28T02:37:00.293Z,2.80
2018-09-28T02:39:28.325Z,2.30
2018-09-28T02:41:56.385Z,2.50
2018-09-28T02:44:24.445Z,2.60
2018-09-28T02:46:52.464Z,2.80
2018-09-28T02:49:20.532Z,2.47
2018-09-28T02:51:48.578Z,3.10
2018-09-28T02:54:16.618Z,3.17
2018-09-28T02:56:44.746Z,2.58
2018-09-28T02:59:12.744Z,2.98
2018-09-28T03:01:40.849Z,2.62
2018-09-28T03:04:08.889Z,3.70
2018-09-28T03:06:37.025Z,3.58
2018-09-28T03:09:07.138Z,3.00
2018-09-28T03:11:35.298Z,3.27
2018-09-28T03:14:03.369Z,3.00
2018-09-28T03:16:31.749Z,3.40
2018-09-28T03:18:59.810Z,3.20
2018-09-28T03:21:28.057Z,2.98
2018-09-28T03:23:56.129Z,3.12
2018-09-28T03:26:24.217Z,3.30
2018-09-28T03:28:52.261Z,3.08
2018-09-28T03:31:20.311Z,2.90
2018-09-28T03:33:48.359Z,3.40
2018-09-28T03:36:16.409Z,3.52
2018-09-28T03:38:44.479Z,3.02
2018-09-28T03:41:12.520Z,3.05
2018-09-28T03:43:40.598Z,3.35
2018-09-28T03:46:08.687Z,4.00
2018-09-28T03:48:36.736Z,4.40
2018-09-28T03:51:04.797Z,3.37
2018-09-28T03:53:32.851Z,3.62
2018-09-28T03:56:00.915Z,3.57
2018-09-28T03:58:28.958Z,3.10
2018-09-28T04:00:57.018Z,3.62
2018-09-28T04:03:25.078Z,3.40
2018-09-28T04:05:53.145Z,2.98
2018-09-28T04:08:21.217Z,4.67
2018-09-28T04:10:49.269Z,3.35
2018-09-28T04:13:17.598Z,3.15
2018-09-28T04:15:45.646Z,4.35
2018-09-28T04:18:13.699Z,3.77
2018-09-28T04:20:41.742Z,3.50
2018-09-28T04:23:09.813Z,3.60
2018-09-28T04:25:37.885Z,3.90
2018-09-28T04:28:05.941Z,3.30
2018-09-28T04:30:34.053Z,3.40
2018-09-28T04:33:02.137Z,3.50
2018-09-28T04:35:30.174Z,3.60
2018-09-28T04:37:58.245Z,3.42
2018-09-28T04:40:26.305Z,3.42
2018-09-28T04:42:54.341Z,3.80
2018-09-28T04:45:22.544Z,3.60
2018-09-28T04:47:50.499Z,5.23
2018-09-28T04:50:18.533Z,3.77
2018-09-28T04:52:46.590Z,3.72
2018-09-28T04:55:14.628Z,3.37
2018-09-28T04:57:42.690Z,3.40
2018-09-28T05:00:11.089Z,3.60
2018-09-28T05:02:39.137Z,3.00
2018-09-28T05:05:07.245Z,3.30
2018-09-28T05:07:35.286Z,3.60
2018-09-28T05:10:03.382Z,4.12
2018-09-28T05:12:31.417Z,3.63
2018-09-28T05:14:59.483Z,3.67
2018-09-28T05:17:27.542Z,3.35
2018-09-28T05:19:55.593Z,3.42
2018-09-28T05:22:23.638Z,3.50
2018-09-28T05:24:51.681Z,3.80
2018-09-28T05:27:19.709Z,3.47
2018-09-28T05:29:47.781Z,3.30
2018-09-28T05:32:15.974Z,3.70
2018-09-28T05:34:43.891Z,3.60
2018-09-28T05:39:53.297Z,4.15
2018-09-28T05:42:21.382Z,4.28
2018-09-28T05:44:49.414Z,3.75
2018-09-28T05:47:17.477Z,3.90
2018-09-28T05:49:45.589Z,3.92
2018-09-28T05:52:13.624Z,3.77
2018-09-28T05:54:41.681Z,3.42
2018-09-28T05:57:09.733Z,3.70
2018-09-28T05:59:43.417Z,3.95
2018-09-28T06:02:16.881Z,4.00
2018-09-28T06:07:37.754Z,4.40
2018-09-28T06:10:05.805Z,4.10
2018-09-28T06:12:33.837Z,3.92
2018-09-28T06:15:01.909Z,3.87
2018-09-28T06:17:29.978Z,4.10
2018-09-28T06:19:58.043Z,4.08
2018-09-28T06:22:26.089Z,4.00
2018-09-28T06:24:54.145Z,3.92
2018-09-28T06:27:22.185Z,3.65
2018-09-28T06:29:50.263Z,3.92
2018-09-28T06:32:18.302Z,4.15
2018-09-28T06:34:46.427Z,4.15
2018-09-28T06:37:14.465Z,3.60
2018-09-28T06:39:42.542Z,3.40
2018-09-28T06:42:10.766Z,3.98
2018-09-28T06:44:39.196Z,3.58
2018-09-28T06:47:07.305Z,3.30
2018-09-28T06:49:35.476Z,3.50
2018-09-28T06:52:03.518Z,4.05
2018-09-28T06:54:31.713Z,4.00
2018-09-28T06:56:59.762Z,4.60
2018-09-28T06:59:27.813Z,3.33
2018-09-28T07:01:55.887Z,3.57
2018-09-28T07:04:24.034Z,3.40
2018-09-28T07:06:52.070Z,3.15
2018-09-28T07:09:20.184Z,3.83
2018-09-28T07:11:48.251Z,3.30
2018-09-28T07:14:16.257Z,3.47
2018-09-28T07:16:44.346Z,3.70
2018-09-28T07:19:12.393Z,3.50
2018-09-28T07:21:40.445Z,3.45
2018-09-28T07:24:08.592Z,3.60
2018-09-28T07:26:36.597Z,3.50
2018-09-28T07:29:04.666Z,3.25
2018-09-28T07:31:32.773Z,4.10
2018-09-28T07:34:00.937Z,3.80
2018-09-28T07:36:29.102Z,3.20
2018-09-28T07:38:57.177Z,3.67
2018-09-28T07:41:25.241Z,3.10
2018-09-28T07:43:53.282Z,2.92
2018-09-28T07:46:21.309Z,3.50
2018-09-28T07:48:49.374Z,2.80
2018-09-28T07:51:17.421Z,3.10
2018-09-28T07:53:45.446Z,3.58
2018-09-28T07:56:13.514Z,2.98
2018-09-28T07:58:41.545Z,3.57
2018-09-28T08:01:09.579Z,3.05
2018-09-28T08:03:37.657Z,2.85
2018-09-28T08:06:05.726Z,3.00
2018-09-28T08:08:33.789Z,3.00
2018-09-28T08:11:01.893Z,2.80
2018-09-28T08:13:29.941Z,2.77
2018-09-28T08:15:57.996Z,2.10
2018-09-28T08:18:26.057Z,2.80
2018-09-28T08:20:54.101Z,3.02
2018-09-28T08:23:22.217Z,2.65
2018-09-28T08:25:50.217Z,2.60
2018-09-28T08:28:18.269Z,2.60
2018-09-28T08:30:46.329Z,2.60
2018-09-28T08:33:14.381Z,2.27
2018-09-28T08:35:42.402Z,2.67
2018-09-28T08:38:10.446Z,3.30
2018-09-28T08:40:38.498Z,2.60
2018-09-28T08:43:06.531Z,2.30
2018-09-28T08:45:34.601Z,3.10
2018-09-28T08:48:02.632Z,2.80
2018-09-28T08:50:30.661Z,2.40
2018-09-28T08:52:58.893Z,3.10
2018-09-28T08:55:26.978Z,2.30
2018-09-28T08:57:55.051Z,2.90
2018-09-28T09:00:23.423Z,2.60
2018-09-28T09:02:51.493Z,2.30
2018-09-28T09:05:19.521Z,2.15
2018-09-28T09:07:47.576Z,2.27
2018-09-28T09:10:15.626Z,2.12
2018-09-28T09:12:43.670Z,2.20
2018-09-28T09:15:11.693Z,2.40
2018-09-28T09:17:39.756Z,2.60
2018-09-28T09:20:08.030Z,2.77
2018-09-28T09:22:36.101Z,2.75
2018-09-28T09:25:04.172Z,2.77
2018-09-28T09:27:32.307Z,2.62
2018-09-28T09:30:00.400Z,3.25
2018-09-28T09:32:28.411Z,2.90
2018-09-28T09:34:56.433Z,2.80
2018-09-28T09:37:24.629Z,2.98
2018-09-28T09:39:52.750Z,2.45
2018-09-28T09:42:20.797Z,2.30
2018-09-28T09:44:48.829Z,2.35
2018-09-28T09:47:16.921Z,2.83
2018-09-28T09:49:44.980Z,3.00
2018-09-28T09:52:13.061Z,3.27
2018-09-28T09:54:41.132Z,2.70
2018-09-28T09:57:09.190Z,2.45
2018-09-28T09:59:37.222Z,2.37
2018-09-28T10:02:10.797Z,2.90
2018-09-28T10:04:38.845Z,2.65
2018-09-28T10:07:06.889Z,2.30
2018-09-28T10:09:34.925Z,2.70
2018-09-28T10:12:02.986Z,2.60
2018-09-28T10:14:31.037Z,2.15
2018-09-28T10:16:59.091Z,2.33
2018-09-28T10:19:27.152Z,2.20
2018-09-28T10:21:55.198Z,2.10
2018-09-28T10:24:23.239Z,1.90
2018-09-28T10:26:51.282Z,2.47
2018-09-28T10:29:19.318Z,2.35
2018-09-28T10:31:47.416Z,2.40
2018-09-28T10:34:15.477Z,2.23
2018-09-28T10:36:43.526Z,2.20
2018-09-28T10:39:11.610Z,2.10
2018-09-28T10:41:39.649Z,2.20
2018-09-28T10:44:07.694Z,2.50
2018-09-28T10:46:35.827Z,2.08
2018-09-28T10:49:03.826Z,2.47
2018-09-28T10:51:31.888Z,2.35
2018-09-28T10:53:59.975Z,2.12
2018-09-28T10:56:28.114Z,2.00
2018-09-28T10:58:56.241Z,2.15
2018-09-28T11:01:24.228Z,2.10
2018-09-28T11:03:52.302Z,2.20
2018-09-28T11:06:20.369Z,2.10
2018-09-28T11:08:48.508Z,2.40
2018-09-28T11:11:17.666Z,2.55
2018-09-28T11:13:45.706Z,2.47
2018-09-28T11:16:13.762Z,2.85
2018-09-28T11:18:41.875Z,2.22
2018-09-28T11:21:09.942Z,2.40
2018-09-28T11:23:37.970Z,2.83
2018-09-28T11:26:06.029Z,2.55
2018-09-28T11:28:34.094Z,2.30
2018-09-28T11:31:02.155Z,2.35
2018-09-28T11:33:30.234Z,2.50
2018-09-28T11:35:58.273Z,2.80
2018-09-28T11:38:26.317Z,2.33
2018-09-28T11:40:54.374Z,2.40
2018-09-28T11:43:22.621Z,2.80
2018-09-28T11:45:50.630Z,2.20
2018-09-28T11:48:18.648Z,2.20
2018-09-28T11:50:46.670Z,2.10
2018-09-28T11:53:14.737Z,2.12
2018-09-28T11:55:42.781Z,2.77
2018-09-28T11:58:10.838Z,2.40
2018-09-28T12:00:38.866Z,2.37
2018-09-28T12:03:06.955Z,2.50
2018-09-28T12:05:35.009Z,2.35
2018-09-28T12:08:03.049Z,2.40
2018-09-28T12:10:31.085Z,2.75
2018-09-28T12:12:59.125Z,2.30
2018-09-28T12:15:27.246Z,2.70
2018-09-28T12:17:55.529Z,2.40
2018-09-28T12:20:23.586Z,2.35
2018-09-28T12:22:51.618Z,2.50
2018-09-28T12:25:19.657Z,2.65
2018-09-28T12:27:47.798Z,2.70
2018-09-28T12:30:15.827Z,2.40
2018-09-28T12:32:43.879Z,2.63
2018-09-28T12:35:11.908Z,2.80
2018-09-28T12:37:39.946Z,2.10
2018-09-28T12:40:07.982Z,3.83
2018-09-28T12:42:36.028Z,2.20
2018-09-28T12:45:04.151Z,2.25
2018-09-28T12:47:32.137Z,2.50
2018-09-28T12:50:00.185Z,2.37
2018-09-28T12:52:28.208Z,2.95
2018-09-28T12:54:56.273Z,2.00
2018-09-28T12:57:24.313Z,2.15
2018-09-28T12:59:52.525Z,2.20
2018-09-28T13:02:20.800Z,1.70
2018-09-28T13:04:48.793Z,2.20
2018-09-28T13:07:16.841Z,3.70
2018-09-28T13:09:44.889Z,2.10
2018-09-28T13:12:12.997Z,2.25
2018-09-28T13:14:41.038Z,1.90
2018-09-28T13:17:09.037Z,2.15
2018-09-28T13:19:37.110Z,2.17
2018-09-28T13:22:05.186Z,1.72
2018-09-28T13:24:33.476Z,1.60
2018-09-28T13:27:01.562Z,1.87
2018-09-28T13:29:29.613Z,1.72
2018-09-28T13:31:57.678Z,1.50
2018-09-28T13:34:25.739Z,1.65
2018-09-28T13:36:53.773Z,1.50
2018-09-28T13:39:21.814Z,1.45
2018-09-28T13:41:49.855Z,2.05
2018-09-28T13:44:17.930Z,1.77
2018-09-28T13:46:45.960Z,1.72
2018-09-28T13:49:14.001Z,1.85
2018-09-28T13:51:42.053Z,2.30
2018-09-28T13:54:10.118Z,1.70
2018-09-28T13:56:38.239Z,1.90
2018-09-28T13:59:06.266Z,2.10
2018-09-28T14:01:34.334Z,2.15
2018-09-28T14:04:02.382Z,2.50
2018-09-28T14:06:30.519Z,2.00
2018-09-28T14:08:58.521Z,2.10
2018-09-28T14:11:26.557Z,2.00
2018-09-28T14:13:54.617Z,2.12
2018-09-28T14:16:22.765Z,2.12
2018-09-28T14:18:50.803Z,2.00
2018-09-28T14:21:18.825Z,2.40
2018-09-28T14:23:46.878Z,2.08
2018-09-28T14:26:14.974Z,1.70
2018-09-28T14:28:43.069Z,2.25
2018-09-28T14:31:11.101Z,2.17
2018-09-28T14:33:39.211Z,1.90
2018-09-28T14:36:07.206Z,2.47
2018-09-28T14:38:35.337Z,2.00
2018-09-28T14:41:03.352Z,2.47
2018-09-28T14:43:31.390Z,2.50
2018-09-28T14:45:59.455Z,2.10
2018-09-28T14:48:27.534Z,2.20
2018-09-28T14:50:55.559Z,2.13
2018-09-28T14:53:23.573Z,2.30
2018-09-28T14:55:51.631Z,2.37
2018-09-28T14:58:19.697Z,2.50
2018-09-28T15:00:47.872Z,2.10
2018-09-28T15:03:15.768Z,2.20
2018-09-28T15:05:43.813Z,1.90
2018-09-28T15:08:11.863Z,2.12
2018-09-28T15:10:39.908Z,1.90
2018-09-28T15:13:07.961Z,1.87
2018-09-28T15:15:36.018Z,2.58
2018-09-28T15:18:04.064Z,2.10
2018-09-28T15:20:32.082Z,2.20
2018-09-28T15:23:00.137Z,2.40
2018-09-28T15:25:28.203Z,2.27
2018-09-28T15:27:56.237Z,2.00
2018-09-28T15:30:24.265Z,2.25
2018-09-28T15:32:52.333Z,2.20
2018-09-28T15:35:20.379Z,2.00
2018-09-28T15:37:48.393Z,2.10
2018-09-28T15:40:16.479Z,2.65
2018-09-28T15:42:44.531Z,2.00
2018-09-28T15:45:12.583Z,2.57
2018-09-28T15:47:40.658Z,2.50
2018-09-28T15:50:08.693Z,2.17
2018-09-28T15:52:36.733Z,2.15
2018-09-28T15:55:04.777Z,2.20
2018-09-28T15:57:32.825Z,2.20
2018-09-28T16:00:00.911Z,2.02
2018-09-28T16:02:28.978Z,2.50
2018-09-28T16:04:57.008Z,2.70
2018-09-28T16:07:25.045Z,2.58
2018-09-28T16:09:53.106Z,2.92
2018-09-28T16:12:21.144Z,2.58
2018-09-28T16:14:49.174Z,2.30
2018-09-28T16:17:17.239Z,2.50
2018-09-28T16:19:45.291Z,2.50
2018-09-28T16:22:13.334Z,2.45
2018-09-28T16:24:41.414Z,2.72
2018-09-28T16:27:09.433Z,2.50
2018-09-28T16:29:37.477Z,2.30
2018-09-28T16:32:05.529Z,2.20
2018-09-28T16:34:33.573Z,2.85
2018-09-28T16:37:01.662Z,2.05
2018-09-28T16:39:29.693Z,2.37
2018-09-28T16:41:57.761Z,2.90
2018-09-28T16:44:25.806Z,2.80
2018-09-28T16:46:53.870Z,2.72
2018-09-28T16:49:21.953Z,2.58
2018-09-28T16:51:50.018Z,2.67
2018-09-28T16:54:18.069Z,3.00
2018-09-28T16:56:46.503Z,2.67
2018-09-28T16:59:14.563Z,2.75
2018-09-28T17:01:42.594Z,2.40
2018-09-28T17:04:10.714Z,2.90
2018-09-28T17:06:38.770Z,3.00
2018-09-28T17:09:07.611Z,2.98
2018-09-28T17:11:35.595Z,2.70
2018-09-28T17:14:03.694Z,2.98
2018-09-28T17:16:31.753Z,2.80
2018-09-28T17:18:59.794Z,2.50
2018-09-28T17:21:27.850Z,2.80
2018-09-28T17:23:55.906Z,2.50
2018-09-28T17:26:23.958Z,3.60
2018-09-28T17:28:52.021Z,2.40
2018-09-28T17:31:20.076Z,2.70
2018-09-28T17:33:48.168Z,3.00
2018-09-28T17:36:16.234Z,2.70
2018-09-28T17:38:44.290Z,3.20
2018-09-28T17:41:12.504Z,2.80
2018-09-28T17:43:40.577Z,4.00
2018-09-28T17:46:08.642Z,3.10
2018-09-28T17:48:36.778Z,3.35
2018-09-28T17:51:04.838Z,3.47
2018-09-28T17:53:32.891Z,2.60
2018-09-28T17:56:00.967Z,3.30
2018-09-28T17:58:29.009Z,2.80
2018-09-28T18:00:57.061Z,3.00
2018-09-28T18:03:25.125Z,3.08
2018-09-28T18:05:53.185Z,3.12
2018-09-28T18:08:21.274Z,3.87
2018-09-28T18:10:49.350Z,2.95
2018-09-28T18:13:17.401Z,3.55
2018-09-28T18:15:45.482Z,3.33
2018-09-28T18:18:13.554Z,3.13
2018-09-28T18:20:41.654Z,3.35
2018-09-28T18:23:09.727Z,3.17
2018-09-28T18:25:37.795Z,3.00
2018-09-28T18:28:06.070Z,3.00
2018-09-28T18:30:34.119Z,3.20
2018-09-28T18:33:02.399Z,3.08
2018-09-28T18:35:30.445Z,2.70
2018-09-28T18:37:58.545Z,3.25
2018-09-28T18:40:26.595Z,3.10
2018-09-28T18:42:54.644Z,3.70
2018-09-28T18:45:22.701Z,3.72
2018-09-28T18:47:50.768Z,3.50
2018-09-28T18:50:18.834Z,3.02
2018-09-28T18:52:46.902Z,3.20
2018-09-28T18:55:14.957Z,3.20
2018-09-28T18:57:43.017Z,3.37
2018-09-28T19:00:11.101Z,3.95
2018-09-28T19:02:39.461Z,3.65
2018-09-28T19:05:07.507Z,3.35
2018-09-28T19:07:35.626Z,3.65
2018-09-28T19:10:03.673Z,3.17
2018-09-28T19:12:31.768Z,3.30
2018-09-28T19:14:59.770Z,3.37
2018-09-28T19:17:27.842Z,3.65
2018-09-28T19:19:55.905Z,3.83
2018-09-28T19:22:24.120Z,3.95
2018-09-28T19:24:52.161Z,3.70
2018-09-28T19:27:20.227Z,4.25
2018-09-28T19:29:48.509Z,3.40
2018-09-28T19:32:16.716Z,3.90
2018-09-28T19:34:44.770Z,4.00
2018-09-28T19:37:12.798Z,3.30
2018-09-28T19:39:40.869Z,3.40
2018-09-28T19:42:08.901Z,4.10
2018-09-28T19:44:36.962Z,4.03
2018-09-28T19:47:05.029Z,3.60
2018-09-28T19:49:33.080Z,3.87
2018-09-28T19:52:01.130Z,4.05
2018-09-28T19:54:29.197Z,3.83
2018-09-28T19:56:57.296Z,4.58
2018-09-28T19:59:25.342Z,4.40
2018-09-28T20:01:53.391Z,3.90
2018-09-28T20:04:21.490Z,4.42
2018-09-28T20:06:49.509Z,4.28
2018-09-28T20:09:17.562Z,4.25
2018-09-28T20:11:45.629Z,3.70
2018-09-28T20:14:13.684Z,3.42
2018-09-28T20:16:41.736Z,4.40
2018-09-28T20:19:09.793Z,3.20
2018-09-28T20:21:37.909Z,4.00
2018-09-28T20:24:06.345Z,3.55
2018-09-28T20:26:34.448Z,3.60
2018-09-28T20:29:02.501Z,4.03
2018-09-28T20:31:30.561Z,3.60
2018-09-28T20:33:58.609Z,3.20
2018-09-28T20:36:26.663Z,3.72
2018-09-28T20:38:54.718Z,4.20
2018-09-28T20:41:22.812Z,4.08
2018-09-28T20:43:50.856Z,3.60
2018-09-28T20:46:18.915Z,4.17
2018-09-28T20:48:46.999Z,3.47
2018-09-28T20:51:15.033Z,3.80
2018-09-28T20:53:43.118Z,3.90
2018-09-28T20:56:11.166Z,3.77
2018-09-28T20:58:39.238Z,3.80
2018-09-28T21:01:07.354Z,3.60
2018-09-28T21:03:35.332Z,3.77
2018-09-28T21:06:03.374Z,3.50
2018-09-28T21:08:31.441Z,3.70
2018-09-28T21:10:59.506Z,3.85
2018-09-28T21:13:27.602Z,4.10
2018-09-28T21:15:55.868Z,3.95
2018-09-28T21:18:23.905Z,4.45
2018-09-28T21:20:51.961Z,3.40
2018-09-28T21:23:19.991Z,3.62
2018-09-28T21:25:48.030Z,4.00
2018-09-28T21:28:16.073Z,3.92
2018-09-28T21:30:44.134Z,3.85
2018-09-28T21:33:12.177Z,3.62
2018-09-28T21:35:40.219Z,3.73
2018-09-28T21:38:08.257Z,3.70
2018-09-28T21:40:36.294Z,3.75
2018-09-28T21:43:04.327Z,4.65
2018-09-28T21:45:32.396Z,3.77
2018-09-28T21:48:00.433Z,4.80
2018-09-28T21:50:28.489Z,3.87
2018-09-28T21:52:56.518Z,4.20
2018-09-28T21:55:24.561Z,4.17
2018-09-28T21:57:52.617Z,4.10
2018-09-28T22:00:20.649Z,3.52
2018-09-28T22:02:48.707Z,3.95
2018-09-28T22:05:16.741Z,3.93
2018-09-28T22:07:44.778Z,3.90
2018-09-28T22:10:12.829Z,3.52
2018-09-28T22:12:40.910Z,5.00
2018-09-28T22:15:08.960Z,4.03
2018-09-28T22:17:37.133Z,3.40
2018-09-28T22:20:06.129Z,3.80
2018-09-28T22:22:34.165Z,3.90
2018-09-28T22:25:02.278Z,3.70
2018-09-28T22:27:30.334Z,3.77
2018-09-28T22:29:58.386Z,3.85
2018-09-28T22:32:26.426Z,3.90
2018-09-28T22:34:54.502Z,4.08
2018-09-28T22:37:22.545Z,3.27
2018-09-28T22:39:50.578Z,3.77
2018-09-28T22:42:18.626Z,3.70
2018-09-28T22:44:46.686Z,3.52
2018-09-28T22:47:14.762Z,3.90
2018-09-28T22:49:42.810Z,3.50
2018-09-28T22:52:10.878Z,4.30
2018-09-28T22:54:38.934Z,3.50
2018-09-28T22:57:06.997Z,3.70
2018-09-28T22:59:35.063Z,3.60
2018-09-28T23:02:03.113Z,4.03
2018-09-28T23:04:31.143Z,3.20
2018-09-28T23:06:59.233Z,3.45
2018-09-28T23:09:27.266Z,4.12
2018-09-28T23:11:55.310Z,3.50
2018-09-28T23:14:23.349Z,3.72
2018-09-28T23:16:51.392Z,3.80
2018-09-28T23:19:19.467Z,3.60
2018-09-28T23:21:47.523Z,3.50
2018-09-28T23:24:15.566Z,4.03
2018-09-28T23:26:43.602Z,3.47
2018-09-28T23:29:11.789Z,2.92
2018-09-28T23:31:39.830Z,3.20
2018-09-28T23:34:08.137Z,3.12
2018-09-28T23:36:36.202Z,3.12
2018-09-28T23:39:05.833Z,3.60
2018-09-28T23:41:33.938Z,3.52
2018-09-28T23:44:01.986Z,3.60
2018-09-28T23:46:30.036Z,3.77
2018-09-28T23:48:58.093Z,3.60
2018-09-28T23:51:26.137Z,3.70
2018-09-28T23:53:54.190Z,3.50
2018-09-28T23:56:22.265Z,3.60
2018-09-28T23:58:50.304Z,4.12
